Time,TemperatureF,DewpointF,PressureIn,WindDirection,WindDirectionDegrees,WindSpeedMPH,WindSpeedGustMPH,Humidity,HourlyPrecipIn,Conditions,Clouds,dailyrainin,SoftwareType,DateUTC
2013-02-14 00:02:00,41.2,27.1,29.74,WNW,298,5.8,5.8,57,0.00,,,0.00,WeatherDisplay:10.37,2013-02-14 06:02:00,
2013-02-14 00:07:00,41.7,27.6,29.74,WNW,286,10.4,10.4,57,0.00,,,0.00,WeatherDisplay:10.37,2013-02-14 06:07:00,
2013-02-14 00:12:00,42.1,27.5,29.74,NW,319,4.0,4.0,56,0.00,,,0.00,WeatherDisplay:10.37,2013-02-14 06:12:00,
2013-02-14 00:17:00,41.9,27.3,29.74,WNW,283,4.6,4.6,56,0.00,,,0.00,WeatherDisplay:10.37,2013-02-14 06:17:00,
2013-02-14 00:23:00,41.7,27.1,29.74,WNW,288,3.5,3.5,56,0.00,,,0.00,WeatherDisplay:10.37,2013-02-14 06:23:00,
2013-02-14 00:28:00,41.5,27.4,29.74,WNW,284,3.5,3.5,57,0.00,,,0.00,WeatherDisplay:10.37,2013-02-14 06:28:00,
2013-02-14 00:33:00,41.3,27.2,29.74,WNW,288,4.0,4.0,57,0.00,,,0.00,WeatherDisplay:10.37,2013-02-14 06:33:00,
2013-02-14 00:39:00,41.2,27.5,29.75,NW,313,4.6,4.6,58,0.00,,,0.00,WeatherDisplay:10.37,2013-02-14 06:39:00,
2013-02-14 00:44:00,41.1,27.4,29.75,WNW,286,3.5,3.5,58,0.00,,,0.00,WeatherDisplay:10.37,2013-02-14 06:44:00,
2013-02-14 00:49:00,40.7,27.1,29.75,West,262,6.9,6.9,58,0.00,,,0.00,WeatherDisplay:10.37,2013-02-14 06:49:00,
2013-02-14 00:54:00,40.3,27.1,29.76,West,276,3.5,3.5,59,0.00,,,0.00,WeatherDisplay:10.37,2013-02-14 06:54:00,
2013-02-14 01:00:00,39.9,27.1,29.76,WNW,292,3.5,3.5,60,0.00,,,0.00,WeatherDisplay:10.37,2013-02-14 07:00:00,
2013-02-14 01:05:00,39.9,27.5,29.75,WNW,299,11.5,11.5,61,0.00,,,0.00,WeatherDisplay:10.37,2013-02-14 07:05:00,
2013-02-14 01:10:00,40.0,27.6,29.75,WNW,288,11.5,11.5,61,0.00,,,0.00,WeatherDisplay:10.37,2013-02-14 07:10:00,
2013-02-14 01:15:00,39.9,27.9,29.75,NW,308,5.8,5.8,62,0.00,,,0.00,WeatherDisplay:10.37,2013-02-14 07:15:00,
2013-02-14 01:21:00,39.7,27.7,29.75,West,265,5.8,5.8,62,0.00,,,0.00,WeatherDisplay:10.37,2013-02-14 07:21:00,
2013-02-14 01:26:00,39.4,27.8,29.75,West,274,6.9,6.9,63,0.00,,,0.00,WeatherDisplay:10.37,2013-02-14 07:26:00,
2013-02-14 01:31:00,39.1,27.6,29.75,WNW,292,3.5,3.5,63,0.00,,,0.00,WeatherDisplay:10.37,2013-02-14 07:31:00,
2013-02-14 01:36:00,39.0,27.5,29.75,West,263,4.6,4.6,63,0.00,,,0.00,WeatherDisplay:10.37,2013-02-14 07:36:00,
2013-02-14 01:42:00,38.8,27.3,29.75,West,266,4.6,4.6,63,0.00,,,0.00,WeatherDisplay:10.37,2013-02-14 07:42:00,
2013-02-14 01:47:00,38.7,27.6,29.75,WNW,298,6.9,6.9,64,0.00,,,0.00,WeatherDisplay:10.37,2013-02-14 07:47:00,
2013-02-14 01:52:00,38.6,27.5,29.75,West,268,4.6,4.6,64,0.00,,,0.00,WeatherDisplay:10.37,2013-02-14 07:52:00,
2013-02-14 01:57:00,38.5,27.4,29.76,West,277,5.8,5.8,64,0.00,,,0.00,WeatherDisplay:10.37,2013-02-14 07:57:00,
2013-02-14 02:03:00,38.4,27.3,29.76,WNW,288,9.2,9.2,64,0.00,,,0.00,WeatherDisplay:10.37,2013-02-14 08:03:00,
2013-02-14 02:08:00,38.3,27.2,29.76,West,278,4.6,4.6,64,0.00,,,0.00,WeatherDisplay:10.37,2013-02-14 08:08:00,
2013-02-14 02:13:00,38.3,27.2,29.76,WNW,288,4.6,4.6,64,0.00,,,0.00,WeatherDisplay:10.37,2013-02-14 08:13:00,
2013-02-14 02:18:00,38.2,27.1,29.76,NW,311,6.9,6.9,64,0.00,,,0.00,WeatherDisplay:10.37,2013-02-14 08:18:00,
2013-02-14 02:24:00,38.2,27.5,29.76,West,277,11.5,11.5,65,0.00,,,0.00,WeatherDisplay:10.37,2013-02-14 08:24:00,
2013-02-14 02:29:00,38.5,27.4,29.76,West,281,11.5,11.5,64,0.00,,,0.00,WeatherDisplay:10.37,2013-02-14 08:29:00,
2013-02-14 02:34:00,38.5,27.4,29.77,WNW,299,11.5,11.5,64,0.00,,,0.00,WeatherDisplay:10.37,2013-02-14 08:34:00,
2013-02-14 02:39:00,38.6,27.5,29.76,WNW,294,10.4,10.4,64,0.00,,,0.00,WeatherDisplay:10.37,2013-02-14 08:39:00,
2013-02-14 02:44:00,38.6,27.5,29.76,WNW,287,11.5,11.5,64,0.00,,,0.00,WeatherDisplay:10.37,2013-02-14 08:44:00,
2013-02-14 02:49:00,38.4,27.3,29.77,WNW,288,11.5,11.5,64,0.00,,,0.00,WeatherDisplay:10.37,2013-02-14 08:49:00,
2013-02-14 02:55:00,38.3,27.2,29.77,North,355,11.5,11.5,64,0.00,,,0.00,WeatherDisplay:10.37,2013-02-14 08:55:00,
2013-02-14 03:00:00,38.3,27.6,29.77,WSW,249,10.4,10.4,65,0.00,,,0.00,WeatherDisplay:10.37,2013-02-14 09:00:00,
2013-02-14 03:05:00,38.1,27.4,29.77,WNW,302,10.4,10.4,65,0.00,,,0.00,WeatherDisplay:10.37,2013-02-14 09:05:00,
2013-02-14 03:10:00,37.8,27.5,29.77,WNW,303,11.5,11.5,66,0.00,,,0.00,WeatherDisplay:10.37,2013-02-14 09:10:00,
2013-02-14 03:16:00,37.7,27.7,29.77,WNW,292,12.7,12.7,67,0.00,,,0.00,WeatherDisplay:10.37,2013-02-14 09:16:00,
2013-02-14 03:21:00,37.5,27.5,29.78,West,281,10.4,10.4,67,0.00,,,0.00,WeatherDisplay:10.37,2013-02-14 09:21:00,
2013-02-14 03:26:00,37.4,27.8,29.78,WSW,256,11.5,11.5,68,0.00,,,0.00,WeatherDisplay:10.37,2013-02-14 09:26:00,
2013-02-14 03:31:00,37.2,27.6,29.78,WNW,300,12.0,12.0,68,0.00,,,0.00,WeatherDisplay:10.37,2013-02-14 09:31:00,
2013-02-14 03:36:00,37.2,27.6,29.78,West,271,10.0,10.0,68,0.00,,,0.00,WeatherDisplay:10.37,2013-02-14 09:36:00,
2013-02-14 03:41:00,37.1,27.5,29.78,West,274,9.2,9.2,68,0.00,,,0.00,WeatherDisplay:10.37,2013-02-14 09:41:00,
2013-02-14 03:47:00,36.9,27.7,29.78,WNW,288,6.9,6.9,69,0.00,,,0.00,WeatherDisplay:10.37,2013-02-14 09:47:00,
2013-02-14 03:52:00,36.9,27.7,29.78,West,281,9.2,9.2,69,0.00,,,0.00,WeatherDisplay:10.37,2013-02-14 09:52:00,
2013-02-14 03:57:00,36.9,27.7,29.79,NW,321,11.5,11.5,69,0.00,,,0.00,WeatherDisplay:10.37,2013-02-14 09:57:00,
2013-02-14 04:03:00,37.0,27.8,29.79,WNW,298,9.2,9.2,69,0.00,,,0.00,WeatherDisplay:10.37,2013-02-14 10:03:00,
2013-02-14 04:08:00,36.9,27.7,29.79,West,281,16.1,16.1,69,0.00,,,0.00,WeatherDisplay:10.37,2013-02-14 10:08:00,
2013-02-14 04:13:00,37.1,27.5,29.79,West,279,17.3,17.3,68,0.00,,,0.00,WeatherDisplay:10.37,2013-02-14 10:13:00,
2013-02-14 04:18:00,37.3,27.3,29.80,WNW,298,13.8,13.8,67,0.00,,,0.00,WeatherDisplay:10.37,2013-02-14 10:18:00,
2013-02-14 04:24:00,37.6,27.3,29.80,WNW,298,11.5,11.5,66,0.00,,,0.00,WeatherDisplay:10.37,2013-02-14 10:24:00,
2013-02-14 04:29:00,37.7,27.4,29.80,WNW,286,6.9,6.9,66,0.00,,,0.00,WeatherDisplay:10.37,2013-02-14 10:29:00,
2013-02-14 04:34:00,37.7,27.4,29.80,West,278,11.5,11.5,66,0.00,,,0.00,WeatherDisplay:10.37,2013-02-14 10:34:00,
2013-02-14 04:40:00,37.6,27.3,29.81,WNW,301,11.5,11.5,66,0.00,,,0.00,WeatherDisplay:10.37,2013-02-14 10:40:00,
2013-02-14 04:45:00,37.5,27.2,29.81,NW,310,6.0,6.0,66,0.00,,,0.00,WeatherDisplay:10.37,2013-02-14 10:45:00,
2013-02-14 04:50:00,37.4,27.1,29.81,WNW,292,11.5,11.5,66,0.00,,,0.00,WeatherDisplay:10.37,2013-02-14 10:50:00,
2013-02-14 04:55:00,37.4,27.1,29.81,WNW,299,9.2,9.2,66,0.00,,,0.00,WeatherDisplay:10.37,2013-02-14 10:55:00,
2013-02-14 05:01:00,37.3,27.3,29.82,WNW,291,6.9,6.9,67,0.00,CLR,CLR,0.00,WeatherDisplay:10.37,2013-02-14 11:01:00,
2013-02-14 05:06:00,37.3,27.3,29.82,NNW,330,10.4,10.4,67,0.00,CLR,CLR,0.00,WeatherDisplay:10.37,2013-02-14 11:06:00,
2013-02-14 05:11:00,37.2,27.2,29.82,WNW,282,13.8,13.8,67,0.00,CLR,CLR,0.00,WeatherDisplay:10.37,2013-02-14 11:11:00,
2013-02-14 05:16:00,37.1,27.2,29.83,WNW,290,6.9,6.9,67,0.00,CLR,CLR,0.00,WeatherDisplay:10.37,2013-02-14 11:16:00,
2013-02-14 05:22:00,37.0,27.1,29.83,West,277,9.0,9.0,67,0.00,CLR,CLR,0.00,WeatherDisplay:10.37,2013-02-14 11:22:00,
2013-02-14 05:27:00,37.0,26.7,29.83,NW,311,11.5,11.5,66,0.00,CLR,CLR,0.00,WeatherDisplay:10.37,2013-02-14 11:27:00,
2013-02-14 05:32:00,36.8,26.5,29.83,WNW,294,11.5,11.5,66,0.00,CLR,CLR,0.00,WeatherDisplay:10.37,2013-02-14 11:32:00,
2013-02-14 05:37:00,36.4,26.5,29.83,NW,306,9.2,9.2,67,0.00,CLR,CLR,0.00,WeatherDisplay:10.37,2013-02-14 11:37:00,
2013-02-14 05:43:00,36.1,26.6,29.84,NW,314,10.4,10.4,68,0.00,CLR,CLR,0.00,WeatherDisplay:10.37,2013-02-14 11:43:00,
2013-02-14 05:48:00,35.9,26.7,29.84,West,281,6.9,6.9,69,0.00,CLR,CLR,0.00,WeatherDisplay:10.37,2013-02-14 11:48:00,
2013-02-14 05:53:00,35.9,26.7,29.84,WNW,302,16.1,16.1,69,0.00,CLR,CLR,0.00,WeatherDisplay:10.37,2013-02-14 11:53:00,
2013-02-14 05:58:00,35.9,26.7,29.84,NNW,328,11.5,11.5,69,0.00,OVC,OVC,0.00,WeatherDisplay:10.37,2013-02-14 11:58:00,
2013-02-14 06:03:00,36.0,26.8,29.85,NW,316,15.0,15.0,69,0.00,OVC,OVC,0.00,WeatherDisplay:10.37,2013-02-14 12:03:00,
2013-02-14 06:09:00,35.9,26.7,29.85,North,355,13.0,13.0,69,0.00,OVC,OVC,0.00,WeatherDisplay:10.37,2013-02-14 12:09:00,
2013-02-14 06:14:00,35.4,26.2,29.85,NW,315,12.7,12.7,69,0.00,OVC,OVC,0.00,WeatherDisplay:10.37,2013-02-14 12:14:00,
2013-02-14 06:19:00,35.1,25.6,29.86,NW,304,13.8,13.8,68,0.00,OVC,OVC,0.00,WeatherDisplay:10.37,2013-02-14 12:19:00,
2013-02-14 06:24:00,34.7,24.9,29.86,NW,310,12.7,12.7,67,0.00,OVC,OVC,0.00,WeatherDisplay:10.37,2013-02-14 12:24:00,
2013-02-14 06:29:00,34.6,25.1,29.87,West,275,11.5,11.5,68,0.00,OVC,OVC,0.00,WeatherDisplay:10.37,2013-02-14 12:29:00,
2013-02-14 06:35:00,34.4,25.3,29.87,NW,311,10.4,10.4,69,0.00,OVC,OVC,0.00,WeatherDisplay:10.37,2013-02-14 12:35:00,
2013-02-14 06:40:00,34.4,25.3,29.87,WNW,288,12.7,12.7,69,0.00,OVC,OVC,0.00,WeatherDisplay:10.37,2013-02-14 12:40:00,
2013-02-14 06:45:00,34.1,25.0,29.87,NW,311,14.0,14.0,69,0.00,OVC,OVC,0.00,WeatherDisplay:10.37,2013-02-14 12:45:00,
2013-02-14 06:50:00,33.8,24.7,29.88,WNW,286,11.5,11.5,69,0.00,OVC,OVC,0.00,WeatherDisplay:10.37,2013-02-14 12:50:00,
2013-02-14 06:55:00,33.6,24.9,29.88,WNW,289,12.7,12.7,70,0.00,OVC,OVC,0.00,WeatherDisplay:10.37,2013-02-14 12:55:00,
2013-02-14 07:01:00,33.4,24.7,29.89,WNW,298,10.4,10.4,70,0.00,CLR,CLR,0.00,WeatherDisplay:10.37,2013-02-14 13:01:00,
2013-02-14 07:06:00,33.4,25.0,29.89,NW,325,9.2,9.2,71,0.00,CLR,CLR,0.00,WeatherDisplay:10.37,2013-02-14 13:06:00,
2013-02-14 07:11:00,33.4,25.0,29.90,NW,304,11.5,11.5,71,0.00,CLR,CLR,0.00,WeatherDisplay:10.37,2013-02-14 13:11:00,
2013-02-14 07:16:00,33.4,25.0,29.90,WNW,294,6.0,6.0,71,0.00,CLR,CLR,0.00,WeatherDisplay:10.37,2013-02-14 13:16:00,
2013-02-14 07:22:00,33.4,25.0,29.90,West,269,9.2,9.2,71,0.00,CLR,CLR,0.00,WeatherDisplay:10.37,2013-02-14 13:22:00,
2013-02-14 07:27:00,33.4,25.0,29.90,WNW,289,6.0,6.0,71,0.00,CLR,CLR,0.00,WeatherDisplay:10.37,2013-02-14 13:27:00,
2013-02-14 07:32:00,33.4,25.0,29.90,WNW,296,9.2,9.2,71,0.00,CLR,CLR,0.00,WeatherDisplay:10.37,2013-02-14 13:32:00,
2013-02-14 07:37:00,33.4,25.0,29.91,WNW,293,10.4,10.4,71,0.00,CLR,CLR,0.00,WeatherDisplay:10.37,2013-02-14 13:37:00,
2013-02-14 07:43:00,33.4,25.3,29.91,WNW,292,3.5,3.5,72,0.00,CLR,CLR,0.00,WeatherDisplay:10.37,2013-02-14 13:43:00,
2013-02-14 07:48:00,33.5,25.4,29.91,WNW,294,5.8,5.8,72,0.00,CLR,CLR,0.00,WeatherDisplay:10.37,2013-02-14 13:48:00,
2013-02-14 07:53:00,33.6,25.5,29.91,WNW,301,3.5,3.5,72,0.00,CLR,CLR,0.00,WeatherDisplay:10.37,2013-02-14 13:53:00,
2013-02-14 07:59:00,33.9,25.8,29.92,WNW,292,3.5,3.5,72,0.00,OVC,OVC,0.00,WeatherDisplay:10.37,2013-02-14 13:59:00,
2013-02-14 08:04:00,34.3,26.2,29.91,West,278,6.9,6.9,72,0.00,OVC,OVC,0.00,WeatherDisplay:10.37,2013-02-14 14:04:00,
2013-02-14 08:09:00,34.4,26.0,29.92,NW,318,5.0,5.0,71,0.00,OVC,OVC,0.00,WeatherDisplay:10.37,2013-02-14 14:09:00,
2013-02-14 08:14:00,34.4,26.0,29.92,WNW,288,10.4,10.4,71,0.00,OVC,OVC,0.00,WeatherDisplay:10.37,2013-02-14 14:14:00,
2013-02-14 08:20:00,34.4,26.0,29.93,WNW,286,8.1,8.1,71,0.00,OVC,OVC,0.00,WeatherDisplay:10.37,2013-02-14 14:20:00,
2013-02-14 08:25:00,34.4,25.6,29.94,WNW,291,11.5,11.5,70,0.00,OVC,OVC,0.00,WeatherDisplay:10.37,2013-02-14 14:25:00,
2013-02-14 08:30:00,34.4,25.6,29.94,West,277,11.5,11.5,70,0.00,OVC,OVC,0.00,WeatherDisplay:10.37,2013-02-14 14:30:00,
2013-02-14 08:36:00,34.4,25.6,29.94,West,275,19.6,19.6,70,0.00,OVC,OVC,0.00,WeatherDisplay:10.37,2013-02-14 14:36:00,
2013-02-14 08:41:00,34.4,25.3,29.94,West,278,6.9,6.9,69,0.00,OVC,OVC,0.00,WeatherDisplay:10.37,2013-02-14 14:41:00,
2013-02-14 08:46:00,34.4,25.3,29.94,NW,305,6.0,6.0,69,0.00,OVC,OVC,0.00,WeatherDisplay:10.37,2013-02-14 14:46:00,
2013-02-14 08:51:00,34.4,25.3,29.94,NW,312,12.7,12.7,69,0.00,OVC,OVC,0.00,WeatherDisplay:10.37,2013-02-14 14:51:00,
2013-02-14 08:56:00,34.4,25.3,29.95,WNW,296,5.8,5.8,69,0.00,OVC,OVC,0.00,WeatherDisplay:10.37,2013-02-14 14:56:00,
2013-02-14 09:02:00,34.4,25.3,29.96,West,278,11.5,11.5,69,0.00,OVC,OVC,0.00,WeatherDisplay:10.37,2013-02-14 15:02:00,
2013-02-14 09:07:00,34.4,25.3,29.97,West,273,8.1,8.1,69,0.00,OVC,OVC,0.00,WeatherDisplay:10.37,2013-02-14 15:07:00,
2013-02-14 09:12:00,34.4,25.6,29.97,WNW,295,6.9,6.9,70,0.00,OVC,OVC,0.00,WeatherDisplay:10.37,2013-02-14 15:12:00,
2013-02-14 09:17:00,34.4,25.6,29.97,WNW,302,11.5,11.5,70,0.00,OVC,OVC,0.00,WeatherDisplay:10.37,2013-02-14 15:17:00,
2013-02-14 09:23:00,34.4,25.3,29.97,WNW,296,9.2,9.2,69,0.00,OVC,OVC,0.00,WeatherDisplay:10.37,2013-02-14 15:23:00,
2013-02-14 09:28:00,34.4,25.3,29.97,West,280,3.5,4.0,69,0.00,OVC,OVC,0.00,WeatherDisplay:10.37,2013-02-14 15:28:00,
2013-02-14 09:33:00,34.4,24.9,29.97,WNW,295,13.8,13.8,68,0.00,OVC,OVC,0.00,WeatherDisplay:10.37,2013-02-14 15:33:00,
2013-02-14 09:38:00,34.4,25.3,29.97,WNW,297,11.5,11.5,69,0.00,OVC,OVC,0.00,WeatherDisplay:10.37,2013-02-14 15:38:00,
2013-02-14 09:44:00,34.4,24.9,29.97,NW,309,6.9,6.9,68,0.00,OVC,OVC,0.00,WeatherDisplay:10.37,2013-02-14 15:44:00,
2013-02-14 09:49:00,34.6,25.1,29.97,WNW,288,5.8,5.8,68,0.00,OVC,OVC,0.00,WeatherDisplay:10.37,2013-02-14 15:49:00,
2013-02-14 09:54:00,34.8,25.3,29.96,WNW,301,6.0,6.0,68,0.00,OVC,OVC,0.00,WeatherDisplay:10.37,2013-02-14 15:54:00,
2013-02-14 09:59:00,34.9,25.8,29.96,WNW,298,6.9,6.9,69,0.00,OVC,OVC,0.00,WeatherDisplay:10.37,2013-02-14 15:59:00,
2013-02-14 10:05:00,34.9,25.4,29.97,West,277,10.4,10.4,68,0.00,OVC,OVC,0.00,WeatherDisplay:10.37,2013-02-14 16:05:00,
2013-02-14 10:10:00,35.0,25.1,29.97,NW,317,10.4,10.4,67,0.00,OVC,OVC,0.00,WeatherDisplay:10.37,2013-02-14 16:10:00,
2013-02-14 10:15:00,35.1,25.2,29.96,North,355,5.8,5.8,67,0.00,OVC,OVC,0.00,WeatherDisplay:10.37,2013-02-14 16:15:00,
2013-02-14 10:20:00,35.7,25.8,29.96,NW,316,3.5,3.5,67,0.00,OVC,OVC,0.00,WeatherDisplay:10.37,2013-02-14 16:20:00,
2013-02-14 10:26:00,36.1,25.8,29.96,NW,323,6.9,6.9,66,0.00,OVC,OVC,0.00,WeatherDisplay:10.37,2013-02-14 16:26:00,
2013-02-14 10:31:00,36.2,25.9,29.97,NW,316,11.5,11.5,66,0.00,OVC,OVC,0.00,WeatherDisplay:10.37,2013-02-14 16:31:00,
2013-02-14 10:36:00,36.2,25.9,29.97,WNW,294,4.6,4.6,66,0.00,OVC,OVC,0.00,WeatherDisplay:10.37,2013-02-14 16:36:00,
2013-02-14 10:42:00,36.2,25.9,29.97,WNW,297,6.9,6.9,66,0.00,OVC,OVC,0.00,WeatherDisplay:10.37,2013-02-14 16:42:00,
2013-02-14 10:47:00,36.5,25.8,29.97,WNW,299,9.2,9.2,65,0.00,OVC,OVC,0.00,WeatherDisplay:10.37,2013-02-14 16:47:00,
2013-02-14 10:52:00,36.7,26.0,29.97,WSW,253,8.1,8.1,65,0.00,OVC,OVC,0.00,WeatherDisplay:10.37,2013-02-14 16:52:00,
2013-02-14 10:57:00,36.8,26.1,29.97,NW,316,4.0,4.0,65,0.00,OVC,OVC,0.00,WeatherDisplay:10.37,2013-02-14 16:57:00,
2013-02-14 11:02:00,37.1,26.0,29.97,WNW,298,9.2,9.2,64,0.00,OVC,OVC,0.00,WeatherDisplay:10.37,2013-02-14 17:02:00,
2013-02-14 11:08:00,37.4,25.9,29.97,WNW,292,8.1,8.1,63,0.00,OVC,OVC,0.00,WeatherDisplay:10.37,2013-02-14 17:08:00,
2013-02-14 11:13:00,37.5,26.4,29.97,NW,304,6.0,6.0,64,0.00,OVC,OVC,0.00,WeatherDisplay:10.37,2013-02-14 17:13:00,
2013-02-14 11:18:00,37.9,26.4,29.97,WNW,288,6.9,6.9,63,0.00,OVC,OVC,0.00,WeatherDisplay:10.37,2013-02-14 17:18:00,
2013-02-14 11:23:00,38.4,26.9,29.97,WNW,292,5.8,5.8,63,0.00,OVC,OVC,0.00,WeatherDisplay:10.37,2013-02-14 17:23:00,
2013-02-14 11:29:00,38.5,26.6,29.97,NW,306,9.2,9.2,62,0.00,OVC,OVC,0.00,WeatherDisplay:10.37,2013-02-14 17:29:00,
2013-02-14 11:34:00,38.5,26.6,29.97,NW,308,3.5,5.3,62,0.00,OVC,OVC,0.00,WeatherDisplay:10.37,2013-02-14 17:34:00,
2013-02-14 11:39:00,39.1,27.2,29.97,NW,314,4.6,4.6,62,0.00,OVC,OVC,0.00,WeatherDisplay:10.37,2013-02-14 17:39:00,
2013-02-14 11:44:00,39.0,26.7,29.97,WNW,297,10.4,10.4,61,0.00,OVC,OVC,0.00,WeatherDisplay:10.37,2013-02-14 17:44:00,
2013-02-14 11:49:00,39.4,26.7,29.97,West,279,5.8,5.8,60,0.00,OVC,OVC,0.00,WeatherDisplay:10.37,2013-02-14 17:49:00,
2013-02-14 11:55:00,39.7,26.9,29.96,WSW,257,6.9,6.9,60,0.00,OVC,OVC,0.00,WeatherDisplay:10.37,2013-02-14 17:55:00,
2013-02-14 12:00:00,40.1,27.3,29.96,WNW,300,5.8,5.8,60,0.00,OVC,OVC,0.00,WeatherDisplay:10.37,2013-02-14 18:00:00,
2013-02-14 12:05:00,40.6,26.5,29.96,West,277,11.5,11.5,57,0.00,OVC,OVC,0.00,WeatherDisplay:10.37,2013-02-14 18:05:00,
2013-02-14 12:10:00,40.8,26.7,29.96,West,271,8.1,8.1,57,0.00,OVC,OVC,0.00,WeatherDisplay:10.37,2013-02-14 18:10:00,
2013-02-14 12:16:00,40.7,27.1,29.96,WNW,301,6.9,6.9,58,0.00,OVC,OVC,0.00,WeatherDisplay:10.37,2013-02-14 18:16:00,
2013-02-14 12:21:00,41.0,27.3,29.96,WSW,246,7.0,7.0,58,0.00,OVC,OVC,0.00,WeatherDisplay:10.37,2013-02-14 18:21:00,
2013-02-14 12:26:00,40.9,26.8,29.96,WNW,293,10.4,10.4,57,0.00,OVC,OVC,0.00,WeatherDisplay:10.37,2013-02-14 18:26:00,
2013-02-14 12:32:00,41.0,26.9,29.96,WNW,286,10.4,10.4,57,0.00,OVC,OVC,0.00,WeatherDisplay:10.37,2013-02-14 18:32:00,
2013-02-14 12:37:00,41.5,27.0,29.96,West,280,9.2,9.2,56,0.00,OVC,OVC,0.00,WeatherDisplay:10.37,2013-02-14 18:37:00,
2013-02-14 12:42:00,41.4,26.9,29.96,WNW,294,11.5,11.5,56,0.00,OVC,OVC,0.00,WeatherDisplay:10.37,2013-02-14 18:42:00,
2013-02-14 12:47:00,41.3,27.2,29.96,NW,306,9.2,9.2,57,0.00,OVC,OVC,0.00,WeatherDisplay:10.37,2013-02-14 18:47:00,
2013-02-14 12:52:00,41.4,26.9,29.96,WNW,299,11.5,11.5,56,0.00,OVC,OVC,0.00,WeatherDisplay:10.37,2013-02-14 18:52:00,
2013-02-14 12:58:00,41.6,27.1,29.96,WSW,256,11.5,11.5,56,0.00,OVC,OVC,0.00,WeatherDisplay:10.37,2013-02-14 18:58:00,
2013-02-14 13:03:00,41.9,27.3,29.96,West,259,11.5,11.5,56,0.00,OVC,OVC,0.00,WeatherDisplay:10.37,2013-02-14 19:03:00,
2013-02-14 13:08:00,41.8,27.2,29.96,WNW,284,9.2,9.2,56,0.00,OVC,OVC,0.00,WeatherDisplay:10.37,2013-02-14 19:08:00,
2013-02-14 13:14:00,41.6,27.5,29.96,WNW,300,11.5,11.5,57,0.00,OVC,OVC,0.00,WeatherDisplay:10.37,2013-02-14 19:14:00,
2013-02-14 13:19:00,41.3,27.2,29.97,WNW,288,10.4,10.4,57,0.00,OVC,OVC,0.00,WeatherDisplay:10.37,2013-02-14 19:19:00,
2013-02-14 13:24:00,41.1,27.0,29.97,WNW,294,15.0,15.0,57,0.00,OVC,OVC,0.00,WeatherDisplay:10.37,2013-02-14 19:24:00,
2013-02-14 13:29:00,40.7,27.1,29.97,WNW,283,11.5,11.5,58,0.00,OVC,OVC,0.00,WeatherDisplay:10.37,2013-02-14 19:29:00,
2013-02-14 13:35:00,40.5,27.3,29.97,WNW,297,11.5,11.5,59,0.00,OVC,OVC,0.00,WeatherDisplay:10.37,2013-02-14 19:35:00,
2013-02-14 13:40:00,40.5,27.7,29.97,WSW,257,11.5,11.5,60,0.00,OVC,OVC,0.00,WeatherDisplay:10.37,2013-02-14 19:40:00,
2013-02-14 13:45:00,40.7,27.9,29.97,WNW,298,10.4,10.4,60,0.00,OVC,OVC,0.00,WeatherDisplay:10.37,2013-02-14 19:45:00,
2013-02-14 13:50:00,40.7,27.5,29.97,WNW,289,10.4,10.4,59,0.00,OVC,OVC,0.00,WeatherDisplay:10.37,2013-02-14 19:50:00,
2013-02-14 13:56:00,41.0,27.8,29.97,WNW,303,4.6,4.6,59,0.00,OVC,OVC,0.00,WeatherDisplay:10.37,2013-02-14 19:56:00,
2013-02-14 14:01:00,41.1,27.4,29.97,WNW,291,3.5,3.5,58,0.00,OVC,OVC,0.00,WeatherDisplay:10.37,2013-02-14 20:01:00,
2013-02-14 14:06:00,41.3,26.8,29.97,West,272,6.9,6.9,56,0.00,OVC,OVC,0.00,WeatherDisplay:10.37,2013-02-14 20:06:00,
2013-02-14 14:11:00,41.5,26.1,29.97,WNW,292,6.0,6.0,54,0.00,OVC,OVC,0.00,WeatherDisplay:10.37,2013-02-14 20:11:00,
2013-02-14 14:17:00,41.8,25.0,29.97,WNW,288,11.5,11.5,51,0.00,OVC,OVC,0.00,WeatherDisplay:10.37,2013-02-14 20:17:00,
2013-02-14 14:22:00,42.0,24.2,29.97,WNW,288,6.9,6.9,49,0.00,OVC,OVC,0.00,WeatherDisplay:10.37,2013-02-14 20:22:00,
2013-02-14 14:27:00,41.7,23.9,29.97,West,265,6.9,6.9,49,0.00,OVC,OVC,0.00,WeatherDisplay:10.37,2013-02-14 20:27:00,
2013-02-14 14:32:00,41.4,24.1,29.98,WNW,298,9.2,9.2,50,0.00,OVC,OVC,0.00,WeatherDisplay:10.37,2013-02-14 20:32:00,
2013-02-14 14:38:00,41.4,22.7,29.99,WNW,291,11.5,11.5,47,0.00,OVC,OVC,0.00,WeatherDisplay:10.37,2013-02-14 20:38:00,
2013-02-14 14:43:00,41.3,22.6,29.99,WNW,294,10.4,10.4,47,0.00,OVC,OVC,0.00,WeatherDisplay:10.37,2013-02-14 20:43:00,
2013-02-14 14:48:00,41.2,23.0,29.99,WNW,290,3.5,3.5,48,0.00,OVC,OVC,0.00,WeatherDisplay:10.37,2013-02-14 20:48:00,
2013-02-14 14:53:00,41.2,23.5,29.99,WNW,285,13.8,13.8,49,0.00,OVC,OVC,0.00,WeatherDisplay:10.37,2013-02-14 20:53:00,
2013-02-14 14:58:00,41.1,22.9,29.99,NW,317,18.4,18.4,48,0.00,OVC,OVC,0.00,WeatherDisplay:10.37,2013-02-14 20:58:00,
2013-02-14 15:04:00,41.0,23.3,30.00,WNW,294,16.1,16.1,49,0.00,OVC,OVC,0.00,WeatherDisplay:10.37,2013-02-14 21:04:00,
2013-02-14 15:09:00,40.8,24.1,30.00,West,279,12.7,12.7,51,0.00,OVC,OVC,0.00,WeatherDisplay:10.37,2013-02-14 21:09:00,
2013-02-14 15:14:00,40.7,24.4,30.00,West,265,9.2,9.2,52,0.00,OVC,OVC,0.00,WeatherDisplay:10.37,2013-02-14 21:14:00,
2013-02-14 15:19:00,40.6,22.9,30.01,North,5,13.0,13.0,49,0.00,OVC,OVC,0.00,WeatherDisplay:10.37,2013-02-14 21:19:00,
2013-02-14 15:25:00,40.3,22.1,30.01,WNW,303,10.4,10.4,48,0.00,OVC,OVC,0.00,WeatherDisplay:10.37,2013-02-14 21:25:00,
2013-02-14 15:30:00,40.0,22.4,30.01,NW,321,13.0,13.0,49,0.00,CLR,CLR,0.00,WeatherDisplay:10.37,2013-02-14 21:30:00,
2013-02-14 15:35:00,39.9,22.7,30.01,WNW,292,8.1,8.1,50,0.00,OVC,OVC,0.00,WeatherDisplay:10.37,2013-02-14 21:35:00,
2013-02-14 15:40:00,39.9,23.2,30.01,NW,315,6.9,6.9,51,0.00,OVC,OVC,0.00,WeatherDisplay:10.37,2013-02-14 21:40:00,
2013-02-14 15:46:00,40.1,22.9,30.01,West,274,5.8,5.8,50,0.00,OVC,OVC,0.00,WeatherDisplay:10.37,2013-02-14 21:46:00,
2013-02-14 15:51:00,40.4,22.7,30.01,NW,309,10.4,10.4,49,0.00,OVC,OVC,0.00,WeatherDisplay:10.37,2013-02-14 21:51:00,
2013-02-14 15:56:00,40.6,22.9,30.01,NW,313,11.5,11.5,49,0.00,CLR,CLR,0.00,WeatherDisplay:10.37,2013-02-14 21:56:00,
2013-02-14 16:01:00,40.6,23.4,30.01,WNW,285,5.8,5.8,50,0.00,CLR,CLR,0.00,WeatherDisplay:10.37,2013-02-14 22:01:00,
2013-02-14 16:07:00,40.6,22.9,30.01,West,274,16.1,16.1,49,0.00,CLR,CLR,0.00,WeatherDisplay:10.37,2013-02-14 22:07:00,
2013-02-14 16:12:00,40.7,23.5,30.02,NNW,332,16.0,16.0,50,0.00,CLR,CLR,0.00,WeatherDisplay:10.37,2013-02-14 22:12:00,
2013-02-14 16:17:00,40.7,23.0,30.02,West,278,11.5,11.5,49,0.00,CLR,CLR,0.00,WeatherDisplay:10.37,2013-02-14 22:17:00,
2013-02-14 16:23:00,40.4,23.2,30.02,WNW,282,15.0,15.0,50,0.00,CLR,CLR,0.00,WeatherDisplay:10.37,2013-02-14 22:23:00,
2013-02-14 16:28:00,40.1,23.9,30.03,WNW,303,13.8,13.8,52,0.00,CLR,CLR,0.00,WeatherDisplay:10.37,2013-02-14 22:28:00,
2013-02-14 16:33:00,39.8,24.0,30.03,West,267,13.8,13.8,53,0.00,CLR,CLR,0.00,WeatherDisplay:10.37,2013-02-14 22:33:00,
2013-02-14 16:38:00,39.5,24.7,30.03,WSW,251,13.8,13.8,55,0.00,CLR,CLR,0.00,WeatherDisplay:10.37,2013-02-14 22:38:00,
2013-02-14 16:44:00,39.2,24.8,30.03,West,273,15.0,15.0,56,0.00,CLR,CLR,0.00,WeatherDisplay:10.37,2013-02-14 22:44:00,
2013-02-14 16:49:00,39.1,24.7,30.04,West,280,16.1,16.1,56,0.00,CLR,CLR,0.00,WeatherDisplay:10.37,2013-02-14 22:49:00,
2013-02-14 16:54:00,38.9,24.9,30.04,WNW,288,11.5,11.5,57,0.00,CLR,CLR,0.00,WeatherDisplay:10.37,2013-02-14 22:54:00,
2013-02-14 17:00:00,38.8,25.3,30.04,WNW,302,9.2,9.2,58,0.00,CLR,CLR,0.00,WeatherDisplay:10.37,2013-02-14 23:00:00,
2013-02-14 17:05:00,38.6,25.5,30.05,WNW,283,9.2,9.2,59,0.00,CLR,CLR,0.00,WeatherDisplay:10.37,2013-02-14 23:05:00,
2013-02-14 17:10:00,38.5,25.8,30.05,WNW,288,5.8,5.8,60,0.00,CLR,CLR,0.00,WeatherDisplay:10.37,2013-02-14 23:10:00,
2013-02-14 17:15:00,38.4,25.7,30.05,WNW,285,9.2,9.2,60,0.00,CLR,CLR,0.00,WeatherDisplay:10.37,2013-02-14 23:15:00,
2013-02-14 17:21:00,38.3,26.0,30.06,WNW,300,5.8,5.8,61,0.00,CLR,CLR,0.00,WeatherDisplay:10.37,2013-02-14 23:21:00,
2013-02-14 17:26:00,37.5,26.4,30.06,WNW,298,11.0,11.0,64,0.00,CLR,CLR,0.00,WeatherDisplay:10.37,2013-02-14 23:26:00,
2013-02-14 17:31:00,36.6,26.3,30.07,WNW,296,6.9,6.9,66,0.00,CLR,CLR,0.00,WeatherDisplay:10.37,2013-02-14 23:31:00,
2013-02-14 17:37:00,36.3,26.4,30.07,NNW,342,10.4,10.4,67,0.00,CLR,CLR,0.00,WeatherDisplay:10.37,2013-02-14 23:37:00,
2013-02-14 17:42:00,36.0,26.1,30.08,NNW,327,11.5,11.5,67,0.00,CLR,CLR,0.00,WeatherDisplay:10.37,2013-02-14 23:42:00,
2013-02-14 17:47:00,35.5,25.6,30.08,WNW,285,10.4,10.4,67,0.00,CLR,CLR,0.00,WeatherDisplay:10.37,2013-02-14 23:47:00,
2013-02-14 17:52:00,35.2,25.3,30.08,West,280,6.0,6.0,67,0.00,CLR,CLR,0.00,WeatherDisplay:10.37,2013-02-14 23:52:00,
2013-02-14 17:58:00,34.9,25.0,30.09,NW,325,9.0,9.0,67,0.00,CLR,CLR,0.00,WeatherDisplay:10.37,2013-02-14 23:58:00,
2013-02-14 18:03:00,34.5,24.7,30.08,NNW,332,9.2,9.2,67,0.00,CLR,CLR,0.00,WeatherDisplay:10.37,2013-02-15 00:03:00,
2013-02-14 18:08:00,34.4,24.6,30.08,NW,305,4.6,4.6,67,0.00,CLR,CLR,0.00,WeatherDisplay:10.37,2013-02-15 00:08:00,
2013-02-14 18:13:00,34.1,24.3,30.09,NW,309,9.2,9.2,67,0.00,CLR,CLR,0.00,WeatherDisplay:10.37,2013-02-15 00:13:00,
2013-02-14 18:19:00,33.9,24.4,30.09,WSW,255,5.8,5.8,68,0.00,CLR,CLR,0.00,WeatherDisplay:10.37,2013-02-15 00:19:00,
2013-02-14 18:24:00,33.7,24.3,30.09,NW,309,9.2,9.2,68,0.00,CLR,CLR,0.00,WeatherDisplay:10.37,2013-02-15 00:24:00,
2013-02-14 18:29:00,33.5,24.1,30.09,NW,322,11.5,11.5,68,0.00,CLR,CLR,0.00,WeatherDisplay:10.37,2013-02-15 00:29:00,
2013-02-14 18:35:00,33.4,24.0,30.10,NW,325,11.5,11.5,68,0.00,CLR,CLR,0.00,WeatherDisplay:10.37,2013-02-15 00:35:00,
2013-02-14 18:40:00,33.2,23.8,30.11,NNW,328,10.4,10.4,68,0.00,CLR,CLR,0.00,WeatherDisplay:10.37,2013-02-15 00:40:00,
2013-02-14 18:45:00,32.9,23.5,30.11,NNW,331,6.9,6.9,68,0.00,CLR,CLR,0.00,WeatherDisplay:10.37,2013-02-15 00:45:00,
2013-02-14 18:50:00,32.7,23.3,30.11,WNW,294,10.4,10.4,68,0.00,CLR,CLR,0.00,WeatherDisplay:10.37,2013-02-15 00:50:00,
2013-02-14 18:56:00,32.5,23.1,30.12,NW,325,6.9,6.9,68,0.00,CLR,CLR,0.00,WeatherDisplay:10.37,2013-02-15 00:56:00,
2013-02-14 19:01:00,32.5,23.1,30.12,WNW,288,8.1,8.1,68,0.00,CLR,CLR,0.00,WeatherDisplay:10.37,2013-02-15 01:01:00,
2013-02-14 19:06:00,32.5,23.1,30.12,NNE,28,4.6,4.6,68,0.00,CLR,CLR,0.00,WeatherDisplay:10.37,2013-02-15 01:06:00,
2013-02-14 19:11:00,32.6,23.2,30.12,North,351,9.2,9.2,68,0.00,CLR,CLR,0.00,WeatherDisplay:10.37,2013-02-15 01:11:00,
2013-02-14 19:16:00,32.6,23.2,30.13,NW,312,5.8,5.8,68,0.00,CLR,CLR,0.00,WeatherDisplay:10.37,2013-02-15 01:16:00,
2013-02-14 19:22:00,32.6,22.8,30.13,North,349,5.8,5.9,67,0.00,CLR,CLR,0.00,WeatherDisplay:10.37,2013-02-15 01:22:00,
2013-02-14 19:27:00,32.7,22.6,30.13,NNW,331,3.5,3.5,66,0.00,CLR,CLR,0.00,WeatherDisplay:10.37,2013-02-15 01:27:00,
2013-02-14 19:32:00,32.8,22.7,30.13,NW,316,10.4,10.4,66,0.00,CLR,CLR,0.00,WeatherDisplay:10.37,2013-02-15 01:32:00,
2013-02-14 19:38:00,32.8,22.7,30.13,WNW,302,5.8,5.8,66,0.00,CLR,CLR,0.00,WeatherDisplay:10.37,2013-02-15 01:38:00,
2013-02-14 19:43:00,32.6,22.1,30.13,NNW,333,13.0,13.0,65,0.00,CLR,CLR,0.00,WeatherDisplay:10.37,2013-02-15 01:43:00,
2013-02-14 19:48:00,32.3,21.1,30.14,NW,316,5.8,5.8,63,0.00,CLR,CLR,0.00,WeatherDisplay:10.37,2013-02-15 01:48:00,
2013-02-14 19:53:00,32.0,20.8,30.14,NNW,342,11.5,11.5,63,0.00,CLR,CLR,0.00,WeatherDisplay:10.37,2013-02-15 01:53:00,
2013-02-14 19:59:00,31.6,20.4,30.14,WNW,282,6.9,6.9,63,0.00,CLR,CLR,0.00,WeatherDisplay:10.37,2013-02-15 01:59:00,
2013-02-14 20:04:00,31.3,20.5,30.14,NNW,329,5.8,5.8,64,0.00,CLR,CLR,0.00,WeatherDisplay:10.37,2013-02-15 02:04:00,
2013-02-14 20:09:00,31.1,20.7,30.15,WNW,300,5.8,5.8,65,0.00,CLR,CLR,0.00,WeatherDisplay:10.37,2013-02-15 02:09:00,
2013-02-14 20:14:00,31.0,20.6,30.15,NW,322,5.8,5.8,65,0.00,CLR,CLR,0.00,WeatherDisplay:10.37,2013-02-15 02:14:00,
2013-02-14 20:19:00,30.8,20.8,30.15,WNW,291,3.5,3.5,66,0.00,CLR,CLR,0.00,WeatherDisplay:10.37,2013-02-15 02:19:00,
2013-02-14 20:25:00,30.6,20.9,30.15,NW,323,6.9,6.9,67,0.00,CLR,CLR,0.00,WeatherDisplay:10.37,2013-02-15 02:25:00,
2013-02-14 20:30:00,30.5,20.8,30.15,NW,317,3.5,3.5,67,0.00,CLR,CLR,0.00,WeatherDisplay:10.37,2013-02-15 02:30:00,
2013-02-14 20:35:00,30.4,21.1,30.16,NW,325,4.6,4.6,68,0.00,CLR,CLR,0.00,WeatherDisplay:10.37,2013-02-15 02:35:00,
2013-02-14 20:40:00,30.2,20.9,30.16,NW,323,3.5,3.5,68,0.00,CLR,CLR,0.00,WeatherDisplay:10.37,2013-02-15 02:40:00,
2013-02-14 20:46:00,30.1,20.5,30.16,NNE,16,5.8,5.8,67,0.00,CLR,CLR,0.00,WeatherDisplay:10.37,2013-02-15 02:46:00,
2013-02-14 20:51:00,29.9,19.6,30.16,WNW,290,6.9,6.9,65,0.00,CLR,CLR,0.00,WeatherDisplay:10.37,2013-02-15 02:51:00,
2013-02-14 20:56:00,29.8,19.1,30.16,WNW,290,5.8,5.8,64,0.00,CLR,CLR,0.00,WeatherDisplay:10.37,2013-02-15 02:56:00,
2013-02-14 21:01:00,29.7,18.6,30.17,NW,310,10.4,10.4,63,0.00,CLR,CLR,0.00,WeatherDisplay:10.37,2013-02-15 03:01:00,
2013-02-14 21:07:00,29.6,18.5,30.17,NW,313,10.4,10.4,63,0.00,CLR,CLR,0.00,WeatherDisplay:10.37,2013-02-15 03:07:00,
2013-02-14 21:12:00,29.4,18.7,30.17,NW,317,6.9,6.9,64,0.00,CLR,CLR,0.00,WeatherDisplay:10.37,2013-02-15 03:12:00,
2013-02-14 21:17:00,29.3,18.6,30.17,NW,315,10.4,10.4,64,0.00,CLR,CLR,0.00,WeatherDisplay:10.37,2013-02-15 03:17:00,
2013-02-14 21:22:00,29.1,18.4,30.17,NNW,336,5.0,5.0,64,0.00,CLR,CLR,0.00,WeatherDisplay:10.37,2013-02-15 03:22:00,
2013-02-14 21:28:00,28.8,17.4,30.18,NNW,341,10.4,10.4,62,0.00,CLR,CLR,0.00,WeatherDisplay:10.37,2013-02-15 03:28:00,
2013-02-14 21:33:00,28.4,15.9,30.18,NW,310,11.5,11.5,59,0.00,CLR,CLR,0.00,WeatherDisplay:10.37,2013-02-15 03:33:00,
2013-02-14 21:38:00,28.1,15.6,30.18,North,5,13.8,13.8,59,0.00,CLR,CLR,0.00,WeatherDisplay:10.37,2013-02-15 03:38:00,
2013-02-14 21:44:00,27.8,15.7,30.19,NW,317,6.9,6.9,60,0.00,CLR,CLR,0.00,WeatherDisplay:10.37,2013-02-15 03:44:00,
2013-02-14 21:49:00,27.5,15.8,30.19,WNW,284,9.0,9.0,61,0.00,CLR,CLR,0.00,WeatherDisplay:10.37,2013-02-15 03:49:00,
2013-02-14 21:54:00,27.1,15.4,30.19,WNW,292,10.4,10.4,61,0.00,CLR,CLR,0.00,WeatherDisplay:10.37,2013-02-15 03:54:00,
2013-02-14 21:59:00,26.9,15.2,30.20,WNW,303,10.4,10.4,61,0.00,CLR,CLR,0.00,WeatherDisplay:10.37,2013-02-15 03:59:00,
2013-02-14 22:04:00,26.8,15.1,30.20,NNE,13,9.2,9.2,61,0.00,CLR,CLR,0.00,WeatherDisplay:10.37,2013-02-15 04:04:00,
2013-02-14 22:10:00,26.6,15.7,30.21,WNW,299,6.9,6.9,63,0.00,CLR,CLR,0.00,WeatherDisplay:10.37,2013-02-15 04:10:00,
2013-02-14 22:15:00,26.3,15.8,30.21,NNW,329,10.4,10.4,64,0.00,CLR,CLR,0.00,WeatherDisplay:10.37,2013-02-15 04:15:00,
2013-02-14 22:20:00,26.2,15.7,30.22,NW,313,6.9,6.9,64,0.00,CLR,CLR,0.00,WeatherDisplay:10.37,2013-02-15 04:20:00,
2013-02-14 22:25:00,26.1,15.9,30.22,NW,321,5.8,5.8,65,0.00,CLR,CLR,0.00,WeatherDisplay:10.37,2013-02-15 04:25:00,
2013-02-14 22:30:00,26.0,15.8,30.22,WNW,303,3.5,3.5,65,0.00,CLR,CLR,0.00,WeatherDisplay:10.37,2013-02-15 04:30:00,
2013-02-14 22:35:00,25.9,15.7,30.22,NW,319,4.6,4.6,65,0.00,CLR,CLR,0.00,WeatherDisplay:10.37,2013-02-15 04:35:00,
2013-02-14 22:41:00,25.8,15.3,30.23,NW,306,3.5,3.5,64,0.00,CLR,CLR,0.00,WeatherDisplay:10.37,2013-02-15 04:41:00,
2013-02-14 22:46:00,25.7,14.8,30.23,NNW,336,4.6,4.6,63,0.00,CLR,CLR,0.00,WeatherDisplay:10.37,2013-02-15 04:46:00,
2013-02-14 22:51:00,25.5,14.6,30.23,NNW,346,5.8,5.8,63,0.00,CLR,CLR,0.00,WeatherDisplay:10.37,2013-02-15 04:51:00,
2013-02-14 22:56:00,25.4,14.2,30.23,NNE,27,3.5,3.5,62,0.00,CLR,CLR,0.00,WeatherDisplay:10.37,2013-02-15 04:56:00,
2013-02-14 23:00:00,25.3,14.1,30.23,NW,312,6.9,6.9,62,0.00,CLR,CLR,0.00,WeatherDisplay:10.37,2013-02-15 05:00:00,
2013-02-14 23:06:00,25.1,13.2,30.23,NW,321,4.6,4.6,60,0.00,CLR,CLR,0.00,WeatherDisplay:10.37,2013-02-15 05:06:00,
2013-02-14 23:11:00,25.0,13.1,30.23,North,355,3.5,3.5,60,0.00,CLR,CLR,0.00,WeatherDisplay:10.37,2013-02-15 05:11:00,
2013-02-14 23:16:00,24.9,12.6,30.24,NNE,26,6.9,6.9,59,0.00,CLR,CLR,0.00,WeatherDisplay:10.37,2013-02-15 05:16:00,
2013-02-14 23:21:00,24.7,12.0,30.24,WNW,298,12.7,12.7,58,0.00,CLR,CLR,0.00,WeatherDisplay:10.37,2013-02-15 05:21:00,
2013-02-14 23:27:00,24.7,11.6,30.24,North,360,4.6,4.6,57,0.00,CLR,CLR,0.00,WeatherDisplay:10.37,2013-02-15 05:27:00,
2013-02-14 23:32:00,24.6,11.5,30.24,NNE,23,10.0,10.0,57,0.00,CLR,CLR,0.00,WeatherDisplay:10.37,2013-02-15 05:32:00,
2013-02-14 23:38:00,24.4,10.9,30.24,North,355,4.6,4.6,56,0.00,CLR,CLR,0.00,WeatherDisplay:10.37,2013-02-15 05:38:00,
2013-02-14 23:43:00,24.2,10.7,30.25,NNW,344,3.5,3.5,56,0.00,CLR,CLR,0.00,WeatherDisplay:10.37,2013-02-15 05:43:00,
2013-02-14 23:48:00,24.1,10.6,30.25,North,5,5.8,5.8,56,0.00,CLR,CLR,0.00,WeatherDisplay:10.37,2013-02-15 05:48:00,
2013-02-14 23:53:00,24.0,10.6,30.25,WNW,295,3.5,3.5,56,0.00,CLR,CLR,0.00,WeatherDisplay:10.37,2013-02-15 05:53:00,
2013-02-14 23:59:00,24.0,10.2,30.25,North,5,9.2,9.2,55,0.00,CLR,CLR,0.00,WeatherDisplay:10.37,2013-02-15 05:59:00,